ESPA/LLA METAR and TAF weather

Enter ICAO airport designator
Station Type Date Time Source
ESPA METAR 2019/02/20 06:50 UTC NOAA

ESPA 200650Z 34017KT 9999 DRSN NSC M09/M12 Q0998


Station Type Date Time Source
ESPA Decoded METAR 2019/02/20 06:50 UTC NOAA

Lulea / Kallax, Sweden (ESPA) 65-33N 022-08E 34M
Feb 20, 2019 - 01:50 AM EST / 2019.02.20 0650 UTC
Wind: from the NNW (340 degrees) at 20 MPH (17 KT):0
Visibility: greater than 7 mile(s):0
Weather: low drifting snow
Temperature: 15 F (-9 C)
Windchill: -2 F (-19 C):1
Dew Point: 10 F (-12 C)
Relative Humidity: 78%
Pressure (altimeter): 29.47 in. Hg (0998 hPa)
ob: ESPA 200650Z 34017KT 9999 DRSN NSC M09/M12 Q0998
cycle: 7

Station Type Date Time Source
ESPA TAF 2019/02/04 06:27 UTC NOAA

TAF TAF ESPA 040820Z 0406/0418 01010KT 2000 SN VV020
TEMPO 0409/0414 1000 +SN DRSN VV009
BECMG 0414/0416 32010KT 5000 -SN VV030
RMK MIL


Example: see airport list